sensor_id;sensor_type;location;lat;lon;timestamp;P1;durP1;ratioP1;P2;durP2;ratioP2
35022;SDS011;21214;44.912;8.204;2022-08-19T00:01:47;2.35;;;0.40;;
35022;SDS011;21214;44.912;8.204;2022-08-19T00:04:14;1.23;;;0.40;;
35022;SDS011;21214;44.912;8.204;2022-08-19T00:06:42;0.55;;;0.50;;
35022;SDS011;21214;44.912;8.204;2022-08-19T00:09:10;0.68;;;0.68;;
35022;SDS011;21214;44.912;8.204;2022-08-19T00:11:37;0.50;;;0.50;;
35022;SDS011;21214;44.912;8.204;2022-08-19T00:14:04;1.83;;;0.57;;
35022;SDS011;21214;44.912;8.204;2022-08-19T00:16:31;0.70;;;0.50;;
35022;SDS011;21214;44.912;8.204;2022-08-19T00:18:57;1.05;;;0.68;;
35022;SDS011;21214;44.912;8.204;2022-08-19T00:21:24;1.77;;;0.63;;
35022;SDS011;21214;44.912;8.204;2022-08-19T00:23:52;0.88;;;0.50;;
35022;SDS011;21214;44.912;8.204;2022-08-19T00:26:18;1.38;;;0.60;;
35022;SDS011;21214;44.912;8.204;2022-08-19T00:28:45;0.55;;;0.50;;
35022;SDS011;21214;44.912;8.204;2022-08-19T00:31:12;1.17;;;0.77;;
35022;SDS011;21214;44.912;8.204;2022-08-19T00:33:37;0.80;;;0.57;;
35022;SDS011;21214;44.912;8.204;2022-08-19T00:36:04;0.50;;;0.50;;
35022;SDS011;21214;44.912;8.204;2022-08-19T00:38:36;1.75;;;0.70;;
35022;SDS011;21214;44.912;8.204;2022-08-19T00:41:06;2.75;;;0.50;;
35022;SDS011;21214;44.912;8.204;2022-08-19T00:43:33;2.15;;;0.60;;
35022;SDS011;21214;44.912;8.204;2022-08-19T00:45:59;2.60;;;0.68;;
35022;SDS011;21214;44.912;8.204;2022-08-19T00:48:28;0.93;;;0.60;;
35022;SDS011;21214;44.912;8.204;2022-08-19T00:50:53;0.60;;;0.60;;
35022;SDS011;21214;44.912;8.204;2022-08-19T00:53:22;0.80;;;0.80;;
35022;SDS011;21214;44.912;8.204;2022-08-19T00:55:50;1.10;;;0.70;;
35022;SDS011;21214;44.912;8.204;2022-08-19T00:58:19;2.38;;;0.70;;
35022;SDS011;21214;44.912;8.204;2022-08-19T01:00:47;0.70;;;0.70;;
35022;SDS011;21214;44.912;8.204;2022-08-19T01:03:15;1.15;;;0.43;;
35022;SDS011;21214;44.912;8.204;2022-08-19T01:05:43;3.42;;;0.50;;
35022;SDS011;21214;44.912;8.204;2022-08-19T01:08:11;1.30;;;0.50;;
35022;SDS011;21214;44.912;8.204;2022-08-19T01:10:37;3.63;;;0.52;;
35022;SDS011;21214;44.912;8.204;2022-08-19T01:13:06;2.22;;;0.70;;
35022;SDS011;21214;44.912;8.204;2022-08-19T01:15:33;1.58;;;0.73;;
35022;SDS011;21214;44.912;8.204;2022-08-19T01:18:27;2.05;;;0.70;;
35022;SDS011;21214;44.912;8.204;2022-08-19T01:20:54;0.68;;;0.50;;
35022;SDS011;21214;44.912;8.204;2022-08-19T01:23:23;1.00;;;0.60;;
35022;SDS011;21214;44.912;8.204;2022-08-19T01:26:08;1.33;;;0.70;;
35022;SDS011;21214;44.912;8.204;2022-08-19T01:28:35;1.00;;;0.90;;
35022;SDS011;21214;44.912;8.204;2022-08-19T01:31:02;2.50;;;0.70;;
35022;SDS011;21214;44.912;8.204;2022-08-19T01:33:29;0.70;;;0.70;;
35022;SDS011;21214;44.912;8.204;2022-08-19T01:36:56;1.05;;;0.55;;
35022;SDS011;21214;44.912;8.204;2022-08-19T01:38:57;2.63;;;0.50;;
35022;SDS011;21214;44.912;8.204;2022-08-19T01:41:24;0.88;;;0.70;;
35022;SDS011;21214;44.912;8.204;2022-08-19T01:43:51;1.80;;;0.57;;
35022;SDS011;21214;44.912;8.204;2022-08-19T01:46:18;0.50;;;0.50;;
35022;SDS011;21214;44.912;8.204;2022-08-19T01:48:45;1.85;;;0.50;;
35022;SDS011;21214;44.912;8.204;2022-08-19T01:51:11;1.02;;;0.50;;
35022;SDS011;21214;44.912;8.204;2022-08-19T01:53:38;0.47;;;0.47;;
35022;SDS011;21214;44.912;8.204;2022-08-19T01:56:04;2.78;;;0.57;;
35022;SDS011;21214;44.912;8.204;2022-08-19T01:58:32;1.63;;;0.60;;
35022;SDS011;21214;44.912;8.204;2022-08-19T02:01:02;1.23;;;0.68;;
35022;SDS011;21214;44.912;8.204;2022-08-19T02:03:30;0.65;;;0.63;;
35022;SDS011;21214;44.912;8.204;2022-08-19T02:05:57;1.02;;;0.45;;
35022;SDS011;21214;44.912;8.204;2022-08-19T02:08:28;0.88;;;0.50;;
35022;SDS011;21214;44.912;8.204;2022-08-19T02:10:55;1.90;;;0.60;;
35022;SDS011;21214;44.912;8.204;2022-08-19T02:13:21;1.90;;;0.60;;
35022;SDS011;21214;44.912;8.204;2022-08-19T02:15:47;0.47;;;0.47;;
35022;SDS011;21214;44.912;8.204;2022-08-19T02:18:13;1.52;;;1.00;;
35022;SDS011;21214;44.912;8.204;2022-08-19T02:20:40;1.55;;;0.50;;
35022;SDS011;21214;44.912;8.204;2022-08-19T02:23:07;1.48;;;0.73;;
35022;SDS011;21214;44.912;8.204;2022-08-19T02:25:33;0.77;;;0.60;;
35022;SDS011;21214;44.912;8.204;2022-08-19T02:27:59;1.33;;;0.63;;
35022;SDS011;21214;44.912;8.204;2022-08-19T02:30:24;1.70;;;0.60;;
35022;SDS011;21214;44.912;8.204;2022-08-19T02:32:50;1.15;;;0.60;;
35022;SDS011;21214;44.912;8.204;2022-08-19T02:35:16;2.33;;;1.58;;
35022;SDS011;21214;44.912;8.204;2022-08-19T02:37:42;3.38;;;0.93;;
35022;SDS011;21214;44.912;8.204;2022-08-19T02:40:27;0.80;;;0.60;;
35022;SDS011;21214;44.912;8.204;2022-08-19T02:42:54;2.15;;;0.80;;
35022;SDS011;21214;44.912;8.204;2022-08-19T02:45:21;1.38;;;0.82;;
35022;SDS011;21214;44.912;8.204;2022-08-19T02:47:47;1.05;;;0.80;;
35022;SDS011;21214;44.912;8.204;2022-08-19T02:50:12;1.35;;;0.70;;
35022;SDS011;21214;44.912;8.204;2022-08-19T02:52:38;1.92;;;0.70;;
35022;SDS011;21214;44.912;8.204;2022-08-19T02:55:04;2.97;;;0.73;;
35022;SDS011;21214;44.912;8.204;2022-08-19T02:57:30;0.70;;;0.52;;
35022;SDS011;21214;44.912;8.204;2022-08-19T02:59:57;1.25;;;0.70;;
35022;SDS011;21214;44.912;8.204;2022-08-19T03:02:23;0.80;;;0.80;;
35022;SDS011;21214;44.912;8.204;2022-08-19T03:04:49;0.77;;;0.70;;
35022;SDS011;21214;44.912;8.204;2022-08-19T03:07:16;1.42;;;0.90;;
35022;SDS011;21214;44.912;8.204;2022-08-19T03:09:43;2.42;;;0.70;;
35022;SDS011;21214;44.912;8.204;2022-08-19T03:12:09;2.33;;;0.40;;
35022;SDS011;21214;44.912;8.204;2022-08-19T03:14:35;0.75;;;0.70;;
35022;SDS011;21214;44.912;8.204;2022-08-19T03:17:02;0.80;;;0.60;;
35022;SDS011;21214;44.912;8.204;2022-08-19T03:19:29;0.70;;;0.55;;
35022;SDS011;21214;44.912;8.204;2022-08-19T03:21:56;1.15;;;0.82;;
35022;SDS011;21214;44.912;8.204;2022-08-19T03:24:23;1.33;;;0.70;;
35022;SDS011;21214;44.912;8.204;2022-08-19T03:26:50;1.70;;;0.80;;
35022;SDS011;21214;44.912;8.204;2022-08-19T03:29:18;2.08;;;0.80;;
35022;SDS011;21214;44.912;8.204;2022-08-19T03:31:44;0.93;;;0.50;;
35022;SDS011;21214;44.912;8.204;2022-08-19T03:34:12;0.93;;;0.82;;
35022;SDS011;21214;44.912;8.204;2022-08-19T03:36:42;0.57;;;0.52;;
35022;SDS011;21214;44.912;8.204;2022-08-19T03:39:09;2.08;;;0.80;;
35022;SDS011;21214;44.912;8.204;2022-08-19T03:41:39;1.27;;;0.70;;
35022;SDS011;21214;44.912;8.204;2022-08-19T03:44:06;3.90;;;0.63;;
35022;SDS011;21214;44.912;8.204;2022-08-19T03:46:34;1.40;;;0.80;;
35022;SDS011;21214;44.912;8.204;2022-08-19T03:49:02;0.60;;;0.60;;
35022;SDS011;21214;44.912;8.204;2022-08-19T03:51:33;2.03;;;0.68;;
35022;SDS011;21214;44.912;8.204;2022-08-19T03:54:02;3.03;;;0.80;;
35022;SDS011;21214;44.912;8.204;2022-08-19T03:56:29;1.27;;;0.68;;
35022;SDS011;21214;44.912;8.204;2022-08-19T03:58:56;0.95;;;0.93;;
35022;SDS011;21214;44.912;8.204;2022-08-19T04:01:24;0.70;;;0.70;;
35022;SDS011;21214;44.912;8.204;2022-08-19T04:03:53;3.15;;;1.17;;
35022;SDS011;21214;44.912;8.204;2022-08-19T04:06:22;1.15;;;0.80;;
35022;SDS011;21214;44.912;8.204;2022-08-19T04:08:50;6.18;;;0.82;;
35022;SDS011;21214;44.912;8.204;2022-08-19T04:11:20;0.88;;;0.88;;
35022;SDS011;21214;44.912;8.204;2022-08-19T04:13:48;1.60;;;0.90;;
35022;SDS011;21214;44.912;8.204;2022-08-19T04:16:16;1.05;;;0.80;;
35022;SDS011;21214;44.912;8.204;2022-08-19T04:18:43;1.15;;;1.05;;
35022;SDS011;21214;44.912;8.204;2022-08-19T04:21:14;1.70;;;1.25;;
35022;SDS011;21214;44.912;8.204;2022-08-19T04:23:45;1.45;;;1.35;;
35022;SDS011;21214;44.912;8.204;2022-08-19T04:26:12;2.53;;;1.30;;
35022;SDS011;21214;44.912;8.204;2022-08-19T04:28:43;1.98;;;1.70;;
35022;SDS011;21214;44.912;8.204;2022-08-19T04:31:17;2.10;;;1.77;;
35022;SDS011;21214;44.912;8.204;2022-08-19T04:33:45;1.98;;;1.75;;
35022;SDS011;21214;44.912;8.204;2022-08-19T04:36:20;2.83;;;1.58;;
35022;SDS011;21214;44.912;8.204;2022-08-19T04:38:48;2.35;;;2.15;;
35022;SDS011;21214;44.912;8.204;2022-08-19T04:41:14;2.47;;;2.17;;
35022;SDS011;21214;44.912;8.204;2022-08-19T04:43:58;3.58;;;2.58;;
35022;SDS011;21214;44.912;8.204;2022-08-19T04:46:25;4.75;;;2.65;;
35022;SDS011;21214;44.912;8.204;2022-08-19T04:48:51;3.28;;;2.60;;
35022;SDS011;21214;44.912;8.204;2022-08-19T04:51:16;3.30;;;2.63;;
35022;SDS011;21214;44.912;8.204;2022-08-19T04:53:42;3.45;;;3.13;;
35022;SDS011;21214;44.912;8.204;2022-08-19T04:56:09;5.82;;;3.28;;
35022;SDS011;21214;44.912;8.204;2022-08-19T04:58:40;3.42;;;2.95;;
35022;SDS011;21214;44.912;8.204;2022-08-19T05:01:08;4.47;;;3.72;;
35022;SDS011;21214;44.912;8.204;2022-08-19T05:03:35;3.42;;;3.13;;
35022;SDS011;21214;44.912;8.204;2022-08-19T05:06:06;4.65;;;3.58;;
35022;SDS011;21214;44.912;8.204;2022-08-19T05:08:36;6.47;;;3.65;;
35022;SDS011;21214;44.912;8.204;2022-08-19T05:11:13;3.65;;;3.42;;
35022;SDS011;21214;44.912;8.204;2022-08-19T05:13:41;4.50;;;3.72;;
35022;SDS011;21214;44.912;8.204;2022-08-19T05:16:08;3.83;;;3.53;;
35022;SDS011;21214;44.912;8.204;2022-08-19T05:18:35;3.40;;;3.20;;
35022;SDS011;21214;44.912;8.204;2022-08-19T05:21:19;4.38;;;2.85;;
35022;SDS011;21214;44.912;8.204;2022-08-19T05:24:05;3.00;;;2.80;;
35022;SDS011;21214;44.912;8.204;2022-08-19T05:26:37;3.88;;;3.20;;
35022;SDS011;21214;44.912;8.204;2022-08-19T05:31:30;3.10;;;2.90;;
35022;SDS011;21214;44.912;8.204;2022-08-19T05:33:56;5.40;;;2.80;;
35022;SDS011;21214;44.912;8.204;2022-08-19T05:36:25;2.92;;;2.38;;
35022;SDS011;21214;44.912;8.204;2022-08-19T05:38:52;2.22;;;2.08;;
35022;SDS011;21214;44.912;8.204;2022-08-19T05:41:19;3.83;;;1.95;;
35022;SDS011;21214;44.912;8.204;2022-08-19T05:43:46;5.75;;;2.00;;
35022;SDS011;21214;44.912;8.204;2022-08-19T05:46:18;3.42;;;2.75;;
35022;SDS011;21214;44.912;8.204;2022-08-19T05:48:45;2.25;;;1.77;;
35022;SDS011;21214;44.912;8.204;2022-08-19T05:51:11;1.80;;;1.70;;
35022;SDS011;21214;44.912;8.204;2022-08-19T05:53:37;6.03;;;1.98;;
35022;SDS011;21214;44.912;8.204;2022-08-19T05:56:13;3.38;;;1.85;;
35022;SDS011;21214;44.912;8.204;2022-08-19T05:58:41;3.50;;;2.25;;
35022;SDS011;21214;44.912;8.204;2022-08-19T06:01:12;3.35;;;2.10;;
35022;SDS011;21214;44.912;8.204;2022-08-19T06:03:40;2.10;;;1.73;;
35022;SDS011;21214;44.912;8.204;2022-08-19T06:06:07;3.25;;;1.77;;
35022;SDS011;21214;44.912;8.204;2022-08-19T06:08:34;3.55;;;1.77;;
35022;SDS011;21214;44.912;8.204;2022-08-19T06:12:03;3.35;;;1.73;;
35022;SDS011;21214;44.912;8.204;2022-08-19T06:14:02;3.58;;;1.80;;
35022;SDS011;21214;44.912;8.204;2022-08-19T06:16:30;1.67;;;1.57;;
35022;SDS011;21214;44.912;8.204;2022-08-19T06:18:57;2.13;;;1.83;;
35022;SDS011;21214;44.912;8.204;2022-08-19T06:21:25;2.95;;;1.80;;
35022;SDS011;21214;44.912;8.204;2022-08-19T06:23:53;2.65;;;1.70;;
35022;SDS011;21214;44.912;8.204;2022-08-19T06:26:20;2.97;;;1.80;;
35022;SDS011;21214;44.912;8.204;2022-08-19T06:28:46;9.82;;;1.92;;
35022;SDS011;21214;44.912;8.204;2022-08-19T06:31:14;4.95;;;2.05;;
35022;SDS011;21214;44.912;8.204;2022-08-19T06:33:42;11.65;;;3.13;;
35022;SDS011;21214;44.912;8.204;2022-08-19T06:36:30;3.45;;;2.30;;
35022;SDS011;21214;44.912;8.204;2022-08-19T06:39:25;3.17;;;2.42;;
35022;SDS011;21214;44.912;8.204;2022-08-19T06:41:57;3.20;;;2.63;;
35022;SDS011;21214;44.912;8.204;2022-08-19T06:44:28;4.60;;;2.67;;
35022;SDS011;21214;44.912;8.204;2022-08-19T06:47:00;3.92;;;3.13;;
35022;SDS011;21214;44.912;8.204;2022-08-19T06:51:58;3.83;;;2.78;;
35022;SDS011;21214;44.912;8.204;2022-08-19T06:54:25;3.53;;;2.22;;
35022;SDS011;21214;44.912;8.204;2022-08-19T06:56:53;2.35;;;2.13;;
35022;SDS011;21214;44.912;8.204;2022-08-19T06:59:20;2.97;;;2.67;;
35022;SDS011;21214;44.912;8.204;2022-08-19T07:01:53;2.35;;;2.13;;
35022;SDS011;21214;44.912;8.204;2022-08-19T07:04:22;3.10;;;2.40;;
35022;SDS011;21214;44.912;8.204;2022-08-19T07:07:05;8.15;;;2.70;;
35022;SDS011;21214;44.912;8.204;2022-08-19T07:09:33;2.50;;;2.30;;
35022;SDS011;21214;44.912;8.204;2022-08-19T07:12:02;3.35;;;2.40;;
35022;SDS011;21214;44.912;8.204;2022-08-19T07:14:30;2.70;;;2.50;;
35022;SDS011;21214;44.912;8.204;2022-08-19T07:16:55;2.72;;;2.00;;
35022;SDS011;21214;44.912;8.204;2022-08-19T07:19:23;2.45;;;2.25;;
35022;SDS011;21214;44.912;8.204;2022-08-19T07:21:51;2.30;;;2.10;;
35022;SDS011;21214;44.912;8.204;2022-08-19T07:24:18;3.90;;;2.25;;
35022;SDS011;21214;44.912;8.204;2022-08-19T07:26:51;2.42;;;2.22;;
35022;SDS011;21214;44.912;8.204;2022-08-19T07:29:20;4.95;;;1.95;;
35022;SDS011;21214;44.912;8.204;2022-08-19T07:31:49;2.85;;;1.92;;
35022;SDS011;21214;44.912;8.204;2022-08-19T07:34:16;3.13;;;2.03;;
35022;SDS011;21214;44.912;8.204;2022-08-19T07:36:42;2.88;;;1.90;;
35022;SDS011;21214;44.912;8.204;2022-08-19T07:39:12;5.28;;;1.70;;
35022;SDS011;21214;44.912;8.204;2022-08-19T07:41:43;2.53;;;1.50;;
35022;SDS011;21214;44.912;8.204;2022-08-19T07:44:10;2.92;;;1.98;;
35022;SDS011;21214;44.912;8.204;2022-08-19T07:46:38;3.22;;;1.80;;
35022;SDS011;21214;44.912;8.204;2022-08-19T07:49:06;2.30;;;1.75;;
35022;SDS011;21214;44.912;8.204;2022-08-19T07:51:33;2.30;;;1.58;;
35022;SDS011;21214;44.912;8.204;2022-08-19T07:53:59;2.08;;;1.88;;
35022;SDS011;21214;44.912;8.204;2022-08-19T07:56:25;3.17;;;1.80;;
35022;SDS011;21214;44.912;8.204;2022-08-19T07:58:52;2.83;;;1.52;;
35022;SDS011;21214;44.912;8.204;2022-08-19T08:01:22;1.50;;;1.40;;
35022;SDS011;21214;44.912;8.204;2022-08-19T08:03:50;1.75;;;1.20;;
35022;SDS011;21214;44.912;8.204;2022-08-19T08:06:36;2.45;;;1.17;;
35022;SDS011;21214;44.912;8.204;2022-08-19T08:09:36;3.95;;;1.20;;
35022;SDS011;21214;44.912;8.204;2022-08-19T08:12:05;3.28;;;1.00;;
35022;SDS011;21214;44.912;8.204;2022-08-19T08:14:41;2.88;;;1.60;;
35022;SDS011;21214;44.912;8.204;2022-08-19T08:17:18;3.08;;;1.10;;
35022;SDS011;21214;44.912;8.204;2022-08-19T08:19:46;3.47;;;1.10;;
35022;SDS011;21214;44.912;8.204;2022-08-19T08:22:14;1.80;;;1.05;;
35022;SDS011;21214;44.912;8.204;2022-08-19T08:25:00;1.92;;;1.30;;
35022;SDS011;21214;44.912;8.204;2022-08-19T08:27:36;1.95;;;0.90;;
35022;SDS011;21214;44.912;8.204;2022-08-19T08:30:09;1.27;;;0.80;;
35022;SDS011;21214;44.912;8.204;2022-08-19T08:32:39;0.90;;;0.80;;
35022;SDS011;21214;44.912;8.204;2022-08-19T08:35:07;1.58;;;0.90;;
35022;SDS011;21214;44.912;8.204;2022-08-19T08:37:37;1.52;;;1.00;;
35022;SDS011;21214;44.912;8.204;2022-08-19T08:40:07;0.63;;;0.63;;
35022;SDS011;21214;44.912;8.204;2022-08-19T08:42:36;1.20;;;0.93;;
35022;SDS011;21214;44.912;8.204;2022-08-19T08:45:13;2.22;;;0.90;;
35022;SDS011;21214;44.912;8.204;2022-08-19T08:47:41;1.23;;;0.98;;
35022;SDS011;21214;44.912;8.204;2022-08-19T08:50:16;4.60;;;1.65;;
35022;SDS011;21214;44.912;8.204;2022-08-19T08:52:51;2.35;;;1.10;;
35022;SDS011;21214;44.912;8.204;2022-08-19T08:55:22;1.23;;;0.80;;
35022;SDS011;21214;44.912;8.204;2022-08-19T08:57:55;3.25;;;1.25;;
35022;SDS011;21214;44.912;8.204;2022-08-19T09:00:32;1.90;;;1.00;;
35022;SDS011;21214;44.912;8.204;2022-08-19T09:03:03;1.52;;;1.10;;
35022;SDS011;21214;44.912;8.204;2022-08-19T09:11:12;2.67;;;1.20;;
35022;SDS011;21214;44.912;8.204;2022-08-19T09:16:32;2.90;;;1.15;;
35022;SDS011;21214;44.912;8.204;2022-08-19T09:19:00;3.15;;;1.40;;
35022;SDS011;21214;44.912;8.204;2022-08-19T09:21:28;2.72;;;1.00;;
35022;SDS011;21214;44.912;8.204;2022-08-19T09:23:54;1.13;;;1.02;;
35022;SDS011;21214;44.912;8.204;2022-08-19T09:26:20;1.40;;;0.80;;
35022;SDS011;21214;44.912;8.204;2022-08-19T09:28:48;2.72;;;0.90;;
35022;SDS011;21214;44.912;8.204;2022-08-19T09:31:16;2.20;;;1.02;;
35022;SDS011;21214;44.912;8.204;2022-08-19T09:33:43;2.97;;;1.00;;
35022;SDS011;21214;44.912;8.204;2022-08-19T09:36:10;1.67;;;0.73;;
35022;SDS011;21214;44.912;8.204;2022-08-19T09:38:38;1.30;;;0.60;;
35022;SDS011;21214;44.912;8.204;2022-08-19T09:41:08;1.15;;;0.73;;
35022;SDS011;21214;44.912;8.204;2022-08-19T09:43:40;0.82;;;0.82;;
35022;SDS011;21214;44.912;8.204;2022-08-19T09:46:08;1.67;;;0.82;;
35022;SDS011;21214;44.912;8.204;2022-08-19T09:48:37;1.38;;;0.73;;
35022;SDS011;21214;44.912;8.204;2022-08-19T09:51:05;2.28;;;0.90;;
35022;SDS011;21214;44.912;8.204;2022-08-19T09:53:34;2.15;;;0.80;;
35022;SDS011;21214;44.912;8.204;2022-08-19T09:56:01;1.10;;;0.95;;
35022;SDS011;21214;44.912;8.204;2022-08-19T09:58:28;1.27;;;0.70;;
35022;SDS011;21214;44.912;8.204;2022-08-19T10:00:55;1.02;;;0.57;;
35022;SDS011;21214;44.912;8.204;2022-08-19T10:03:22;0.98;;;0.90;;
35022;SDS011;21214;44.912;8.204;2022-08-19T10:05:48;0.90;;;0.85;;
35022;SDS011;21214;44.912;8.204;2022-08-19T10:08:18;1.50;;;0.80;;
35022;SDS011;21214;44.912;8.204;2022-08-19T10:10:46;1.88;;;0.80;;
35022;SDS011;21214;44.912;8.204;2022-08-19T10:13:14;1.05;;;0.77;;
35022;SDS011;21214;44.912;8.204;2022-08-19T10:15:41;1.98;;;0.88;;
35022;SDS011;21214;44.912;8.204;2022-08-19T10:18:07;0.82;;;0.73;;
35022;SDS011;21214;44.912;8.204;2022-08-19T10:20:33;1.30;;;0.90;;
35022;SDS011;21214;44.912;8.204;2022-08-19T10:23:01;0.75;;;0.68;;
35022;SDS011;21214;44.912;8.204;2022-08-19T10:25:28;1.45;;;0.88;;
35022;SDS011;21214;44.912;8.204;2022-08-19T10:27:53;2.28;;;0.77;;
35022;SDS011;21214;44.912;8.204;2022-08-19T10:30:19;1.48;;;0.70;;
35022;SDS011;21214;44.912;8.204;2022-08-19T10:32:45;0.82;;;0.80;;
35022;SDS011;21214;44.912;8.204;2022-08-19T10:35:11;1.13;;;0.63;;
35022;SDS011;21214;44.912;8.204;2022-08-19T10:37:38;1.48;;;0.73;;
35022;SDS011;21214;44.912;8.204;2022-08-19T10:40:05;1.58;;;1.00;;
35022;SDS011;21214;44.912;8.204;2022-08-19T10:42:32;1.88;;;0.80;;
35022;SDS011;21214;44.912;8.204;2022-08-19T10:44:59;1.50;;;0.90;;
35022;SDS011;21214;44.912;8.204;2022-08-19T10:47:25;1.05;;;0.80;;
35022;SDS011;21214;44.912;8.204;2022-08-19T10:49:51;3.47;;;0.80;;
35022;SDS011;21214;44.912;8.204;2022-08-19T10:52:36;0.63;;;0.63;;
35022;SDS011;21214;44.912;8.204;2022-08-19T10:55:03;1.77;;;0.70;;
35022;SDS011;21214;44.912;8.204;2022-08-19T10:57:48;1.33;;;1.15;;
35022;SDS011;21214;44.912;8.204;2022-08-19T11:00:14;1.80;;;0.82;;
35022;SDS011;21214;44.912;8.204;2022-08-19T11:02:40;1.10;;;0.80;;
35022;SDS011;21214;44.912;8.204;2022-08-19T11:05:08;0.85;;;0.70;;
35022;SDS011;21214;44.912;8.204;2022-08-19T11:07:36;1.27;;;0.95;;
35022;SDS011;21214;44.912;8.204;2022-08-19T11:10:03;0.70;;;0.70;;
35022;SDS011;21214;44.912;8.204;2022-08-19T11:12:29;2.55;;;0.70;;
35022;SDS011;21214;44.912;8.204;2022-08-19T11:14:55;2.60;;;0.88;;
35022;SDS011;21214;44.912;8.204;2022-08-19T11:17:21;1.05;;;0.70;;
35022;SDS011;21214;44.912;8.204;2022-08-19T11:19:48;1.30;;;0.70;;
35022;SDS011;21214;44.912;8.204;2022-08-19T11:22:14;0.80;;;0.80;;
35022;SDS011;21214;44.912;8.204;2022-08-19T11:24:40;1.73;;;0.88;;
35022;SDS011;21214;44.912;8.204;2022-08-19T11:27:06;1.55;;;0.70;;
35022;SDS011;21214;44.912;8.204;2022-08-19T11:29:36;1.25;;;0.60;;
35022;SDS011;21214;44.912;8.204;2022-08-19T11:32:04;3.03;;;0.70;;
35022;SDS011;21214;44.912;8.204;2022-08-19T11:34:35;1.75;;;0.73;;
35022;SDS011;21214;44.912;8.204;2022-08-19T11:37:02;0.98;;;0.80;;
35022;SDS011;21214;44.912;8.204;2022-08-19T11:39:29;1.08;;;0.73;;
35022;SDS011;21214;44.912;8.204;2022-08-19T11:42:00;0.65;;;0.63;;
35022;SDS011;21214;44.912;8.204;2022-08-19T11:44:49;1.65;;;0.85;;
35022;SDS011;21214;44.912;8.204;2022-08-19T11:47:15;0.77;;;0.70;;
35022;SDS011;21214;44.912;8.204;2022-08-19T11:49:41;1.80;;;0.57;;
35022;SDS011;21214;44.912;8.204;2022-08-19T11:52:07;1.60;;;0.73;;
35022;SDS011;21214;44.912;8.204;2022-08-19T11:54:33;1.23;;;0.80;;
35022;SDS011;21214;44.912;8.204;2022-08-19T11:56:59;1.42;;;0.63;;
35022;SDS011;21214;44.912;8.204;2022-08-19T11:59:26;1.63;;;0.73;;
35022;SDS011;21214;44.912;8.204;2022-08-19T12:01:52;1.00;;;0.80;;
35022;SDS011;21214;44.912;8.204;2022-08-19T12:04:17;0.88;;;0.88;;
35022;SDS011;21214;44.912;8.204;2022-08-19T12:06:43;3.25;;;1.00;;
35022;SDS011;21214;44.912;8.204;2022-08-19T12:09:10;0.90;;;0.90;;
35022;SDS011;21214;44.912;8.204;2022-08-19T12:11:37;2.33;;;0.93;;
35022;SDS011;21214;44.912;8.204;2022-08-19T12:14:03;1.38;;;0.93;;
35022;SDS011;21214;44.912;8.204;2022-08-19T12:16:30;1.35;;;0.95;;
35022;SDS011;21214;44.912;8.204;2022-08-19T12:18:58;1.98;;;0.73;;
35022;SDS011;21214;44.912;8.204;2022-08-19T12:21:29;2.42;;;1.30;;
35022;SDS011;21214;44.912;8.204;2022-08-19T12:23:56;2.40;;;0.93;;
35022;SDS011;21214;44.912;8.204;2022-08-19T12:26:23;2.35;;;0.90;;
35022;SDS011;21214;44.912;8.204;2022-08-19T12:28:50;2.20;;;0.90;;
35022;SDS011;21214;44.912;8.204;2022-08-19T12:31:16;0.70;;;0.63;;
35022;SDS011;21214;44.912;8.204;2022-08-19T12:33:43;0.90;;;0.80;;
35022;SDS011;21214;44.912;8.204;2022-08-19T12:36:10;1.15;;;0.80;;
35022;SDS011;21214;44.912;8.204;2022-08-19T12:38:37;1.67;;;0.70;;
35022;SDS011;21214;44.912;8.204;2022-08-19T12:41:04;1.20;;;0.65;;
35022;SDS011;21214;44.912;8.204;2022-08-19T12:43:34;1.58;;;0.70;;
35022;SDS011;21214;44.912;8.204;2022-08-19T12:46:01;1.20;;;0.93;;
35022;SDS011;21214;44.912;8.204;2022-08-19T12:48:29;1.75;;;0.90;;
35022;SDS011;21214;44.912;8.204;2022-08-19T12:50:55;1.00;;;0.68;;
35022;SDS011;21214;44.912;8.204;2022-08-19T12:53:21;2.05;;;0.82;;
35022;SDS011;21214;44.912;8.204;2022-08-19T12:55:47;1.50;;;0.65;;
35022;SDS011;21214;44.912;8.204;2022-08-19T12:58:13;1.90;;;0.95;;
35022;SDS011;21214;44.912;8.204;2022-08-19T13:00:39;2.95;;;1.00;;
35022;SDS011;21214;44.912;8.204;2022-08-19T13:03:04;2.00;;;0.60;;
35022;SDS011;21214;44.912;8.204;2022-08-19T13:05:31;1.50;;;0.60;;
35022;SDS011;21214;44.912;8.204;2022-08-19T13:07:59;1.08;;;0.68;;
35022;SDS011;21214;44.912;8.204;2022-08-19T13:10:29;2.15;;;0.80;;
35022;SDS011;21214;44.912;8.204;2022-08-19T13:13:00;1.48;;;0.63;;
35022;SDS011;21214;44.912;8.204;2022-08-19T13:15:26;2.05;;;0.65;;
35022;SDS011;21214;44.912;8.204;2022-08-19T13:17:53;1.05;;;0.70;;
35022;SDS011;21214;44.912;8.204;2022-08-19T13:20:20;1.75;;;0.80;;
35022;SDS011;21214;44.912;8.204;2022-08-19T13:22:47;1.80;;;0.70;;
35022;SDS011;21214;44.912;8.204;2022-08-19T13:25:13;2.28;;;0.80;;
35022;SDS011;21214;44.912;8.204;2022-08-19T13:27:42;1.73;;;0.80;;
35022;SDS011;21214;44.912;8.204;2022-08-19T13:30:09;1.95;;;0.57;;
35022;SDS011;21214;44.912;8.204;2022-08-19T13:32:54;3.00;;;0.98;;
35022;SDS011;21214;44.912;8.204;2022-08-19T13:35:43;0.73;;;0.50;;
35022;SDS011;21214;44.912;8.204;2022-08-19T13:38:18;1.00;;;0.90;;
35022;SDS011;21214;44.912;8.204;2022-08-19T13:40:46;2.03;;;0.82;;
35022;SDS011;21214;44.912;8.204;2022-08-19T13:43:14;1.25;;;0.70;;
35022;SDS011;21214;44.912;8.204;2022-08-19T13:45:42;1.65;;;0.73;;
35022;SDS011;21214;44.912;8.204;2022-08-19T13:48:08;2.38;;;0.90;;
35022;SDS011;21214;44.912;8.204;2022-08-19T13:50:35;0.88;;;0.68;;
35022;SDS011;21214;44.912;8.204;2022-08-19T13:53:06;1.13;;;0.70;;
35022;SDS011;21214;44.912;8.204;2022-08-19T13:55:33;1.17;;;0.70;;
35022;SDS011;21214;44.912;8.204;2022-08-19T13:57:59;2.22;;;1.05;;
35022;SDS011;21214;44.912;8.204;2022-08-19T14:00:31;0.80;;;0.50;;
35022;SDS011;21214;44.912;8.204;2022-08-19T14:03:01;0.70;;;0.63;;
35022;SDS011;21214;44.912;8.204;2022-08-19T14:05:27;1.17;;;0.80;;
35022;SDS011;21214;44.912;8.204;2022-08-19T14:07:54;2.20;;;0.70;;
35022;SDS011;21214;44.912;8.204;2022-08-19T14:10:21;0.70;;;0.60;;
35022;SDS011;21214;44.912;8.204;2022-08-19T14:12:48;1.55;;;0.80;;
35022;SDS011;21214;44.912;8.204;2022-08-19T14:15:17;2.53;;;0.80;;
35022;SDS011;21214;44.912;8.204;2022-08-19T14:17:43;1.70;;;0.70;;
35022;SDS011;21214;44.912;8.204;2022-08-19T14:20:12;2.10;;;0.77;;
35022;SDS011;21214;44.912;8.204;2022-08-19T14:22:39;1.23;;;0.60;;
35022;SDS011;21214;44.912;8.204;2022-08-19T14:25:07;2.28;;;0.73;;
35022;SDS011;21214;44.912;8.204;2022-08-19T14:27:37;1.73;;;0.77;;
35022;SDS011;21214;44.912;8.204;2022-08-19T14:30:05;0.82;;;0.60;;
35022;SDS011;21214;44.912;8.204;2022-08-19T14:32:32;3.58;;;0.70;;
35022;SDS011;21214;44.912;8.204;2022-08-19T14:34:58;2.67;;;0.80;;
35022;SDS011;21214;44.912;8.204;2022-08-19T14:37:25;1.02;;;0.70;;
35022;SDS011;21214;44.912;8.204;2022-08-19T14:39:50;0.98;;;0.65;;
35022;SDS011;21214;44.912;8.204;2022-08-19T14:42:16;1.20;;;0.50;;
35022;SDS011;21214;44.912;8.204;2022-08-19T14:44:42;0.60;;;0.50;;
35022;SDS011;21214;44.912;8.204;2022-08-19T14:47:08;0.77;;;0.60;;
35022;SDS011;21214;44.912;8.204;2022-08-19T14:49:34;0.57;;;0.57;;
35022;SDS011;21214;44.912;8.204;2022-08-19T14:52:00;1.00;;;0.85;;
35022;SDS011;21214;44.912;8.204;2022-08-19T14:54:26;1.10;;;0.85;;
35022;SDS011;21214;44.912;8.204;2022-08-19T14:56:51;1.17;;;0.68;;
35022;SDS011;21214;44.912;8.204;2022-08-19T14:59:17;1.05;;;0.68;;
35022;SDS011;21214;44.912;8.204;2022-08-19T15:01:43;2.22;;;0.60;;
35022;SDS011;21214;44.912;8.204;2022-08-19T15:04:08;0.88;;;0.60;;
35022;SDS011;21214;44.912;8.204;2022-08-19T15:06:34;1.70;;;0.73;;
35022;SDS011;21214;44.912;8.204;2022-08-19T15:09:00;2.38;;;0.63;;
35022;SDS011;21214;44.912;8.204;2022-08-19T15:11:27;1.20;;;0.80;;